HRT168 CYYZ-CYUL
Flight info
| Callsign | HRT168 |
|---|---|
| Flight time | N/A |
| Altitude | 37000 |
| Route | DEDKI5 MIGLO HABBS7 |
| Aircraft | CL60/M-SBDE1E2E3FGHIJ4J5J7M3RWXYZ/LB1V1D1 |
Departure
| Time | 2026-05-06 22:44 |
|---|---|
| Airport | Toronto Pearson International Airport (CYYZ) |
Arrival
| Time | N/A |
|---|---|
| Airport | Montreal / Pierre Elliott Trudeau International Airport (CYUL) |
| Time | Latitude | Longitude | Altitude | Speed | Heading |
|---|---|---|---|---|---|
| 2026-05-06 22:15 | 43.68872 | -79.65136 | 553 ft | 0 kts | 43° |
| 2026-05-06 22:38 | 43.68895 | -79.65103 | 553 ft | 14 kts | 49° |
| 2026-05-06 22:39 | 43.68948 | -79.65007 | 553 ft | 9 kts | 56° |
| 2026-05-06 22:39 | 43.68993 | -79.64922 | 553 ft | 12 kts | 57° |
| 2026-05-06 22:39 | 43.68970 | -79.64813 | 551 ft | 14 kts | 158° |
| 2026-05-06 22:39 | 43.68906 | -79.64855 | 550 ft | 11 kts | 226° |
| 2026-05-06 22:40 | 43.68821 | -79.64977 | 550 ft | 22 kts | 227° |
| 2026-05-06 22:40 | 43.68696 | -79.65121 | 550 ft | 16 kts | 225° |
| 2026-05-06 22:40 | 43.68605 | -79.65232 | 551 ft | 18 kts | 202° |
| 2026-05-06 22:40 | 43.68465 | -79.65270 | 550 ft | 22 kts | 196° |
| 2026-05-06 22:41 | 43.68231 | -79.65550 | 555 ft | 23 kts | 225° |
| 2026-05-06 22:41 | 43.68119 | -79.65713 | 559 ft | 19 kts | 229° |
| 2026-05-06 22:41 | 43.68026 | -79.65848 | 561 ft | 20 kts | 227° |
| 2026-05-06 22:42 | 43.67922 | -79.65997 | 563 ft | 22 kts | 226° |
| 2026-05-06 22:42 | 43.67810 | -79.66161 | 565 ft | 24 kts | 226° |
| 2026-05-06 22:42 | 43.67701 | -79.66316 | 565 ft | 10 kts | 225° |
| 2026-05-06 22:42 | 43.67627 | -79.66425 | 565 ft | 23 kts | 226° |
| 2026-05-06 22:43 | 43.67531 | -79.66524 | 566 ft | 14 kts | 165° |
| 2026-05-06 22:43 | 43.67451 | -79.66435 | 566 ft | 9 kts | 137° |
| 2026-05-06 22:43 | 43.67470 | -79.66323 | 565 ft | 28 kts | 41° |
| 2026-05-06 22:43 | 43.67797 | -79.65848 | 563 ft | 109 kts | 43° |
| 2026-05-06 22:44 | 43.68453 | -79.64873 | 786 ft | 157 kts | 45° |
| 2026-05-06 22:44 | 43.69224 | -79.63718 | 1492 ft | 159 kts | 40° |
| 2026-05-06 22:44 | 43.70070 | -79.62682 | 2007 ft | 177 kts | 37° |
| 2026-05-06 22:44 | 43.71123 | -79.61454 | 2403 ft | 219 kts | 37° |
| 2026-05-06 22:45 | 43.72377 | -79.59990 | 3111 ft | 243 kts | 36° |
| 2026-05-06 22:45 | 43.73687 | -79.58442 | 3987 ft | 257 kts | 37° |
| 2026-05-06 22:45 | 43.74925 | -79.56616 | 4946 ft | 271 kts | 56° |
| 2026-05-06 22:45 | 43.75448 | -79.54095 | 5949 ft | 283 kts | 85° |
| 2026-05-06 22:46 | 43.75464 | -79.51363 | 6903 ft | 291 kts | 89° |
| 2026-05-06 22:46 | 43.75450 | -79.49280 | 7598 ft | 297 kts | 89° |